createdAt,value
2023-04-18T00:00:39.740Z,3.015
2023-04-18T00:01:39.815Z,3
2023-04-18T00:02:39.983Z,3
2023-04-18T00:03:40.116Z,3
2023-04-18T00:04:39.997Z,2.965
2023-04-18T00:05:39.946Z,2.965
2023-04-18T00:06:39.997Z,2.961
2023-04-18T00:07:40.035Z,2.961
2023-04-18T00:08:40.075Z,2.91
2023-04-18T00:09:40.152Z,2.939
2023-04-18T00:10:40.159Z,2.924
2023-04-18T00:11:40.200Z,2.924
2023-04-18T00:12:40.250Z,2.924
2023-04-18T00:13:40.290Z,2.939
2023-04-18T00:14:40.330Z,2.953
2023-04-18T00:15:40.362Z,2.939
2023-04-18T00:16:40.451Z,2.953
2023-04-18T00:17:40.545Z,2.99
2023-04-18T00:18:40.490Z,2.946
2023-04-18T00:19:40.531Z,2.932
2023-04-18T00:20:40.580Z,2.917
2023-04-18T00:21:40.619Z,2.895
2023-04-18T00:22:40.670Z,2.917
2023-04-18T00:23:40.705Z,2.932
2023-04-18T00:24:40.749Z,2.932
2023-04-18T00:25:40.821Z,2.917
2023-04-18T00:26:40.879Z,2.932
2023-04-18T00:27:40.909Z,2.932
2023-04-18T00:28:40.940Z,2.917
2023-04-18T00:29:40.987Z,2.888
2023-04-18T00:30:41.041Z,2.873
2023-04-18T00:31:41.065Z,2.888
2023-04-18T00:32:41.116Z,2.888
2023-04-18T00:33:41.140Z,2.888
2023-04-18T00:34:41.175Z,2.881
2023-04-18T00:35:41.238Z,2.814
2023-04-18T00:36:41.264Z,2.785
2023-04-18T00:37:41.311Z,2.785
2023-04-18T00:38:41.382Z,2.8
2023-04-18T00:39:41.429Z,2.785
2023-04-18T00:40:41.451Z,2.8
2023-04-18T00:41:41.475Z,2.8
2023-04-18T00:42:41.505Z,2.778
2023-04-18T00:43:41.573Z,2.778
2023-04-18T00:44:41.593Z,2.807
2023-04-18T00:45:41.640Z,2.807
2023-04-18T00:46:41.706Z,2.787
2023-04-18T00:47:41.773Z,2.822
2023-04-18T00:48:41.759Z,2.837
2023-04-18T00:49:41.809Z,2.786
2023-04-18T00:50:41.836Z,2.748
2023-04-18T00:51:41.890Z,2.8
2023-04-18T00:52:41.933Z,2.763
2023-04-18T00:53:41.985Z,2.763
2023-04-18T00:54:42.012Z,2.777
2023-04-18T00:55:42.048Z,2.748
2023-04-18T00:56:42.098Z,2.763
2023-04-18T00:57:42.153Z,2.763
2023-04-18T00:58:42.174Z,2.763
2023-04-18T00:59:42.214Z,2.763
2023-04-18T01:00:42.256Z,2.733
2023-04-18T01:01:42.347Z,2.733
2023-04-18T01:02:42.530Z,2.718
2023-04-18T01:03:42.655Z,2.718
2023-04-18T01:04:42.606Z,2.763
2023-04-18T01:05:42.468Z,2.763
2023-04-18T01:06:42.505Z,2.748
2023-04-18T01:07:42.551Z,2.763
2023-04-18T01:08:42.602Z,2.763
2023-04-18T01:09:42.644Z,2.763
2023-04-18T01:10:42.710Z,2.777
2023-04-18T01:11:42.728Z,2.792
2023-04-18T01:12:42.774Z,2.8
2023-04-18T01:13:42.812Z,2.8
2023-04-18T01:14:42.853Z,2.8
2023-04-18T01:15:42.932Z,2.786
2023-04-18T01:16:42.931Z,2.771
2023-04-18T01:17:43.028Z,2.786
2023-04-18T01:18:43.025Z,2.786
2023-04-18T01:19:43.079Z,2.771
2023-04-18T01:20:43.102Z,2.756
2023-04-18T01:21:43.155Z,2.741
2023-04-18T01:22:43.184Z,2.695
2023-04-18T01:23:43.226Z,2.681
2023-04-18T01:24:43.274Z,2.695
2023-04-18T01:25:43.364Z,2.681
2023-04-18T01:26:43.360Z,2.681
2023-04-18T01:27:43.400Z,2.71
2023-04-18T01:28:43.438Z,2.71
2023-04-18T01:29:43.476Z,2.656
2023-04-18T01:30:43.532Z,2.634
2023-04-18T01:31:43.644Z,2.649
2023-04-18T01:32:43.660Z,2.664
2023-04-18T01:33:43.647Z,2.678
2023-04-18T01:34:43.689Z,2.678
2023-04-18T01:35:43.744Z,2.681
2023-04-18T01:36:43.784Z,2.681
2023-04-18T01:37:43.816Z,2.699
2023-04-18T01:38:43.864Z,2.699
2023-04-18T01:39:43.896Z,2.699
2023-04-18T01:40:43.945Z,2.714
2023-04-18T01:41:43.989Z,2.699
2023-04-18T01:42:44.037Z,2.631
2023-04-18T01:43:44.060Z,2.608
2023-04-18T01:44:44.103Z,2.646
2023-04-18T01:45:44.143Z,2.605
2023-04-18T01:46:44.231Z,2.585
2023-04-18T01:47:44.274Z,2.585
2023-04-18T01:48:44.268Z,2.585
2023-04-18T01:49:44.312Z,2.585
2023-04-18T01:50:44.350Z,2.599
2023-04-18T01:51:44.395Z,2.599
2023-04-18T01:52:44.451Z,2.599
2023-04-18T01:53:44.475Z,2.602
2023-04-18T01:54:44.519Z,2.599
2023-04-18T01:55:44.557Z,2.628
2023-04-18T01:56:44.592Z,2.66
2023-04-18T01:57:44.636Z,2.66
2023-04-18T01:58:44.670Z,2.62
2023-04-18T01:59:44.703Z,2.62
2023-04-18T02:00:44.778Z,2.638
2023-04-18T02:01:44.818Z,2.605
2023-04-18T02:02:44.952Z,2.638
2023-04-18T02:03:45.147Z,2.602
2023-04-18T02:04:44.935Z,2.587
2023-04-18T02:05:44.965Z,2.565
2023-04-18T02:06:45.009Z,2.541
2023-04-18T02:07:45.057Z,2.526
2023-04-18T02:08:45.109Z,2.541
2023-04-18T02:09:45.142Z,2.541
2023-04-18T02:10:45.199Z,2.518
2023-04-18T02:11:45.234Z,2.532
2023-04-18T02:12:45.277Z,2.532
2023-04-18T02:13:45.314Z,2.532
2023-04-18T02:14:45.356Z,2.532
2023-04-18T02:15:45.396Z,2.525
2023-04-18T02:16:45.512Z,2.539
2023-04-18T02:17:45.490Z,2.539
2023-04-18T02:18:45.517Z,2.5
2023-04-18T02:19:45.549Z,2.529
2023-04-18T02:20:45.596Z,2.544
2023-04-18T02:21:45.689Z,2.544
2023-04-18T02:22:45.677Z,2.49
2023-04-18T02:23:45.714Z,2.49
2023-04-18T02:24:45.765Z,2.49
2023-04-18T02:25:45.800Z,2.467
2023-04-18T02:26:45.876Z,2.452
2023-04-18T02:27:45.893Z,2.485
2023-04-18T02:28:45.931Z,2.485
2023-04-18T02:29:45.977Z,2.477
2023-04-18T02:30:46.022Z,2.474
2023-04-18T02:31:46.186Z,2.424
2023-04-18T02:32:46.143Z,2.424
2023-04-18T02:33:46.140Z,2.438
2023-04-18T02:34:46.172Z,2.406
2023-04-18T02:35:46.218Z,2.42
2023-04-18T02:36:46.299Z,2.413
2023-04-18T02:37:46.312Z,2.413
2023-04-18T02:38:46.350Z,2.428
2023-04-18T02:39:46.395Z,2.431
2023-04-18T02:40:46.453Z,2.399
2023-04-18T02:41:46.517Z,2.399
2023-04-18T02:42:46.530Z,2.394
2023-04-18T02:43:46.554Z,2.408
2023-04-18T02:44:46.597Z,2.39
2023-04-18T02:45:46.707Z,2.408
2023-04-18T02:46:46.727Z,2.408
2023-04-18T02:47:54.680Z,2.405
2023-04-18T02:48:46.769Z,2.44
2023-04-18T02:49:46.812Z,2.44
2023-04-18T02:50:46.840Z,2.44
2023-04-18T02:51:46.919Z,2.426
2023-04-18T02:52:46.933Z,2.39
2023-04-18T02:53:46.975Z,2.376
2023-04-18T02:54:47.018Z,2.317
2023-04-18T02:55:47.067Z,2.3
2023-04-18T02:56:47.136Z,2.315
2023-04-18T02:57:47.135Z,2.306
2023-04-18T02:58:47.177Z,2.32
2023-04-18T02:59:47.216Z,2.335
2023-04-18T03:00:47.264Z,2.34
2023-04-18T03:01:47.406Z,2.326
2023-04-18T03:02:47.474Z,2.326
2023-04-18T03:03:47.371Z,2.34
2023-04-18T03:04:47.422Z,2.318
2023-04-18T03:05:47.454Z,2.318
2023-04-18T03:06:47.537Z,2.332
2023-04-18T03:07:47.533Z,2.293
2023-04-18T03:08:47.566Z,2.293
2023-04-18T03:09:47.607Z,2.307
2023-04-18T03:10:47.655Z,2.307
2023-04-18T03:11:47.866Z,2.307
2023-04-18T03:12:47.758Z,2.293
2023-04-18T03:13:47.773Z,2.257
2023-04-18T03:14:47.811Z,2.257
2023-04-18T03:15:47.894Z,2.217
2023-04-18T03:16:47.935Z,2.217
2023-04-18T03:17:47.955Z,2.234
2023-04-18T03:18:47.982Z,2.234
2023-04-18T03:19:48.042Z,2.234
2023-04-18T03:20:48.066Z,2.217
2023-04-18T03:21:48.175Z,2.173
2023-04-18T03:22:48.152Z,2.173
2023-04-18T03:23:48.198Z,2.187
2023-04-18T03:24:48.237Z,2.187
2023-04-18T03:25:48.269Z,2.187
2023-04-18T03:26:48.342Z,2.201
2023-04-18T03:27:48.350Z,2.201
2023-04-18T03:28:48.398Z,2.201
2023-04-18T03:29:48.435Z,2.223
2023-04-18T03:30:48.487Z,2.223
2023-04-18T03:31:48.692Z,2.209
2023-04-18T03:32:48.599Z,2.209
2023-04-18T03:33:48.600Z,2.156
2023-04-18T03:34:48.641Z,2.142
2023-04-18T03:35:48.676Z,2.142
2023-04-18T03:36:48.718Z,2.16
2023-04-18T03:37:48.751Z,2.174
2023-04-18T03:38:48.798Z,2.156
2023-04-18T03:39:48.844Z,2.156
2023-04-18T03:40:48.873Z,2.174
2023-04-18T03:41:48.921Z,2.165
2023-04-18T03:42:48.952Z,2.151
2023-04-18T03:43:48.997Z,2.137
2023-04-18T03:44:49.028Z,2.122
2023-04-18T03:45:49.109Z,2.145
2023-04-18T03:46:49.117Z,2.131
2023-04-18T03:47:49.199Z,2.103
2023-04-18T03:48:49.194Z,2.106
2023-04-18T03:49:49.242Z,2.088
2023-04-18T03:50:49.273Z,2.088
2023-04-18T03:51:49.313Z,2.074
2023-04-18T03:52:49.365Z,2.074
2023-04-18T03:53:49.420Z,2.095
2023-04-18T03:54:49.458Z,2.127
2023-04-18T03:55:49.490Z,2.109
2023-04-18T03:56:49.529Z,2.087
2023-04-18T03:57:49.579Z,2.11
2023-04-18T03:58:49.613Z,2.073
2023-04-18T03:59:49.648Z,2.114
2023-04-18T04:00:49.698Z,2.114
2023-04-18T04:01:49.791Z,2.082
2023-04-18T04:02:49.963Z,2.082
2023-04-18T04:03:50.007Z,2.086
2023-04-18T04:04:49.890Z,2.067
2023-04-18T04:05:49.914Z,2.053
2023-04-18T04:06:49.956Z,2.039
2023-04-18T04:07:49.992Z,2.039
2023-04-18T04:08:50.024Z,2.039
2023-04-18T04:09:50.075Z,2.039
2023-04-18T04:10:50.112Z,2.024
2023-04-18T04:11:50.155Z,2.014
2023-04-18T04:12:50.189Z,2.01
2023-04-18T04:13:50.235Z,2.01
2023-04-18T04:14:50.284Z,2.043
2023-04-18T04:15:50.331Z,2.043
2023-04-18T04:16:50.406Z,2.024
2023-04-18T04:17:50.423Z,2.039
2023-04-18T04:18:50.429Z,2.057
2023-04-18T04:19:50.464Z,2.039
2023-04-18T04:20:50.503Z,2.039
2023-04-18T04:21:50.548Z,2.047
2023-04-18T04:22:50.597Z,2.051
2023-04-18T04:23:50.632Z,2.037
2023-04-18T04:24:50.669Z,2.019
2023-04-18T04:25:50.702Z,2.019
2023-04-18T04:26:50.785Z,2.037
2023-04-18T04:27:50.778Z,2.019
2023-04-18T04:28:50.823Z,2.019
2023-04-18T04:29:50.862Z,2.037
2023-04-18T04:30:50.903Z,2.004
2023-04-18T04:31:50.970Z,1.99
2023-04-18T04:32:51.100Z,1.975
2023-04-18T04:33:51.028Z,1.961
2023-04-18T04:34:51.068Z,1.979
2023-04-18T04:35:51.101Z,1.975
2023-04-18T04:36:51.200Z,1.99
2023-04-18T04:37:51.194Z,1.998
2023-04-18T04:38:51.229Z,1.998
2023-04-18T04:39:51.270Z,2.034
2023-04-18T04:40:51.319Z,2.04
2023-04-18T04:41:51.361Z,2.04
2023-04-18T04:42:51.392Z,2.029
2023-04-18T04:43:51.433Z,2.015
2023-04-18T04:44:51.530Z,2
2023-04-18T04:45:51.696Z,1.997
2023-04-18T04:46:51.552Z,1.982
2023-04-18T04:47:51.604Z,2.015
2023-04-18T04:48:51.634Z,1.997
2023-04-18T04:49:51.682Z,1.997
2023-04-18T04:50:51.716Z,2.015
2023-04-18T04:51:51.770Z,2.015
2023-04-18T04:52:51.803Z,2.015
2023-04-18T04:53:51.838Z,2.015
2023-04-18T04:54:51.888Z,2.038
2023-04-18T04:55:51.941Z,2.038
2023-04-18T04:56:51.965Z,2.038
2023-04-18T04:57:52.007Z,2.038
2023-04-18T04:58:52.056Z,2.045
2023-04-18T04:59:52.090Z,2.031
2023-04-18T05:00:52.188Z,2.031
2023-04-18T05:01:52.303Z,2.016
2023-04-18T05:02:52.293Z,2.016
2023-04-18T05:03:52.374Z,2.054
2023-04-18T05:04:52.306Z,2.039
2023-04-18T05:05:52.340Z,2.024
2023-04-18T05:06:52.384Z,2.063
2023-04-18T05:07:52.435Z,2.071
2023-04-18T05:08:52.471Z,2.104
2023-04-18T05:09:52.498Z,2.104
2023-04-18T05:10:52.543Z,2.147
2023-04-18T05:11:52.574Z,2.162
2023-04-18T05:12:52.628Z,2.17
2023-04-18T05:13:52.659Z,2.156
2023-04-18T05:14:52.693Z,2.148
2023-04-18T05:15:52.737Z,2.156
2023-04-18T05:16:52.819Z,2.101
2023-04-18T05:17:52.862Z,2.086
2023-04-18T05:18:52.861Z,2.143
2023-04-18T05:19:52.889Z,2.114
2023-04-18T05:20:52.945Z,2.115
2023-04-18T05:21:52.980Z,2.074
2023-04-18T05:22:53.021Z,2.139
2023-04-18T05:23:53.058Z,2.162
2023-04-18T05:24:53.088Z,2.158
2023-04-18T05:25:53.138Z,2.143
2023-04-18T05:26:53.183Z,2.093
2023-04-18T05:27:53.217Z,2.057
2023-04-18T05:28:53.264Z,2.057
2023-04-18T05:29:53.290Z,2.057
2023-04-18T05:30:53.406Z,2.027
2023-04-18T05:31:53.387Z,2.014
2023-04-18T05:32:53.528Z,1.999
2023-04-18T05:33:53.461Z,1.967
2023-04-18T05:34:53.488Z,2.012
2023-04-18T05:35:53.563Z,1.997
2023-04-18T05:36:53.572Z,2.065
2023-04-18T05:37:53.619Z,2.079
2023-04-18T05:38:53.653Z,2.014
2023-04-18T05:39:53.703Z,1.985
2023-04-18T05:40:53.721Z,1.938
2023-04-18T05:41:53.773Z,1.96
2023-04-18T05:42:53.811Z,1.99
2023-04-18T05:44:02.299Z,2.028
2023-04-18T05:44:53.888Z,1.998
2023-04-18T05:45:55.847Z,2.043
2023-04-18T05:46:53.971Z,2.066
2023-04-18T05:47:54.096Z,2.087
2023-04-18T05:48:54.043Z,2.072
2023-04-18T05:49:54.077Z,2.03
2023-04-18T05:50:54.134Z,1.968
2023-04-18T05:51:54.162Z,1.937
2023-04-18T05:52:54.208Z,1.967
2023-04-18T05:53:54.246Z,1.904
2023-04-18T05:54:54.295Z,1.794
2023-04-18T05:55:54.328Z,1.713
2023-04-18T05:56:54.374Z,1.609
2023-04-18T05:57:54.405Z,1.591
2023-04-18T05:58:54.445Z,1.599
2023-04-18T05:59:54.498Z,1.611
2023-04-18T06:00:54.525Z,1.539
2023-04-18T06:01:54.595Z,1.47
2023-04-18T06:02:54.818Z,1.305
2023-04-18T06:03:54.873Z,1.262
2023-04-18T06:04:54.843Z,1.163
2023-04-18T06:05:54.854Z,1.148
2023-04-18T06:06:54.766Z,1.204
2023-04-18T06:07:54.802Z,1.143
2023-04-18T06:08:54.840Z,1.11
2023-04-18T06:09:54.888Z,1.183
2023-04-18T06:10:54.915Z,1.122
2023-04-18T06:11:54.967Z,1.099
2023-04-18T06:12:54.994Z,0.9841
2023-04-18T06:13:55.037Z,0.9776
2023-04-18T06:14:55.072Z,0.9881
2023-04-18T06:15:55.167Z,0.963
2023-04-18T06:16:55.152Z,0.9559
2023-04-18T06:17:55.238Z,0.825
2023-04-18T06:18:55.241Z,0.7584
2023-04-18T06:19:55.267Z,0.6371
2023-04-18T06:20:55.320Z,0.6236
2023-04-18T06:21:55.351Z,0.5602
2023-04-18T06:22:55.388Z,0.622
2023-04-18T06:23:55.424Z,0.5031
2023-04-18T06:24:55.457Z,0.3822
2023-04-18T06:25:55.494Z,0.4232
2023-04-18T06:26:55.540Z,0.3
2023-04-18T06:27:55.579Z,0.3236
2023-04-18T06:28:55.614Z,0.2691
2023-04-18T06:29:55.655Z,0.2747
2023-04-18T06:30:55.687Z,0.1635
2023-04-18T06:31:55.785Z,0.05112
2023-04-18T06:32:55.817Z,0.08989
2023-04-18T06:33:55.806Z,0.08815
2023-04-18T06:34:55.844Z,0.05199
2023-04-18T06:35:55.900Z,0.03419
2023-04-18T06:36:55.963Z,-0.06529
2023-04-18T06:37:55.979Z,-0.07033
2023-04-18T06:38:56.013Z,0.03463
2023-04-18T06:39:56.058Z,0.1638
2023-04-18T06:40:56.081Z,0.2339
2023-04-18T06:41:56.121Z,0.2506
2023-04-18T06:42:56.173Z,0.3572
2023-04-18T06:44:03.428Z,0.5243
2023-04-18T06:44:56.250Z,0.606
2023-04-18T06:45:56.387Z,0.6236
2023-04-18T06:46:56.334Z,0.5444
2023-04-18T06:47:56.391Z,0.6161
2023-04-18T06:48:56.405Z,0.709
2023-04-18T06:49:56.447Z,0.5938
2023-04-18T06:50:56.497Z,0.5751
2023-04-18T06:51:56.538Z,0.6235
2023-04-18T06:52:56.578Z,0.6979
2023-04-18T06:53:56.627Z,0.7865
2023-04-18T06:54:56.648Z,0.7833
2023-04-18T06:55:56.693Z,0.762
2023-04-18T06:56:56.747Z,0.7931
2023-04-18T06:57:56.787Z,0.9338
2023-04-18T06:58:56.813Z,0.8857
2023-04-18T06:59:56.865Z,0.9948
2023-04-18T07:00:56.924Z,0.9552
2023-04-18T07:01:56.954Z,0.9648
2023-04-18T07:02:57.146Z,0.9966
2023-04-18T07:03:57.111Z,1.17
2023-04-18T07:04:57.078Z,1.236
2023-04-18T07:05:57.106Z,1.307
2023-04-18T07:06:57.148Z,1.36
2023-04-18T07:07:57.196Z,1.43
2023-04-18T07:08:57.232Z,1.413
2023-04-18T07:09:57.272Z,1.465
2023-04-18T07:10:57.309Z,1.535
2023-04-18T07:11:57.346Z,1.534
2023-04-18T07:12:57.392Z,1.429
2023-04-18T07:13:57.433Z,1.424
2023-04-18T07:14:57.479Z,1.441
2023-04-18T07:15:57.517Z,1.564
2023-04-18T07:16:57.620Z,1.703
2023-04-18T07:17:57.634Z,1.651
2023-04-18T07:18:57.636Z,1.633
2023-04-18T07:19:57.665Z,1.651
2023-04-18T07:20:57.704Z,1.738
2023-04-18T07:21:57.745Z,1.778
2023-04-18T07:22:57.806Z,1.743
2023-04-18T07:23:57.844Z,1.817
2023-04-18T07:24:57.872Z,1.852
2023-04-18T07:25:57.910Z,1.853
2023-04-18T07:26:57.943Z,1.851
2023-04-18T07:27:57.996Z,1.921
2023-04-18T07:28:58.026Z,1.921
2023-04-18T07:29:58.066Z,1.94
2023-04-18T07:30:58.157Z,2.011
2023-04-18T07:31:58.139Z,2.103
2023-04-18T07:32:58.211Z,2.016
2023-04-18T07:33:58.229Z,1.967
2023-04-18T07:34:58.276Z,1.95
2023-04-18T07:35:58.294Z,1.916
2023-04-18T07:36:58.341Z,1.935
2023-04-18T07:37:58.381Z,1.988
2023-04-18T07:38:58.428Z,2.123
2023-04-18T07:39:58.472Z,2.118
2023-04-18T07:40:58.497Z,1.971
2023-04-18T07:41:58.526Z,1.783
2023-04-18T07:42:58.567Z,1.655
2023-04-18T07:43:58.607Z,1.804
2023-04-18T07:44:58.683Z,1.942
2023-04-18T07:45:58.768Z,1.803
2023-04-18T07:46:58.731Z,1.69
2023-04-18T07:47:58.859Z,1.613
2023-04-18T07:48:58.821Z,1.697
2023-04-18T07:49:58.852Z,1.695
2023-04-18T07:50:58.886Z,1.815
2023-04-18T07:51:58.926Z,1.68
2023-04-18T07:52:58.970Z,1.755
2023-04-18T07:53:59.021Z,1.795
2023-04-18T07:54:59.059Z,1.675
2023-04-18T07:55:59.087Z,1.559
2023-04-18T07:56:59.132Z,1.519
2023-04-18T07:57:59.174Z,1.515
2023-04-18T07:58:59.209Z,1.446
2023-04-18T07:59:59.251Z,1.426
2023-04-18T08:00:59.293Z,1.543
2023-04-18T08:01:59.377Z,1.582
2023-04-18T08:02:59.540Z,1.739
2023-04-18T08:03:59.489Z,1.912
2023-04-18T08:04:59.519Z,1.697
2023-04-18T08:05:59.497Z,1.712
2023-04-18T08:06:59.559Z,1.877
2023-04-18T08:07:59.586Z,1.914
2023-04-18T08:08:59.625Z,1.791
2023-04-18T08:09:59.664Z,1.6
2023-04-18T08:10:59.696Z,1.747
2023-04-18T08:16:00.005Z,2.023
2023-04-18T08:16:59.950Z,1.96
2023-04-18T08:18:00.068Z,1.896
2023-04-18T08:19:00.028Z,1.968
2023-04-18T08:20:00.066Z,2.08
2023-04-18T08:21:00.126Z,2.032
2023-04-18T08:22:00.225Z,2.275
2023-04-18T08:23:07.454Z,1.992
2023-04-18T08:24:00.223Z,1.887
2023-04-18T08:25:04.923Z,1.741
2023-04-18T08:26:00.314Z,1.796
2023-04-18T08:27:00.355Z,2.046
2023-04-18T08:28:00.403Z,2.059
2023-04-18T08:29:00.437Z,1.94
2023-04-18T08:30:00.516Z,1.947
2023-04-18T08:31:00.511Z,2.091
2023-04-18T08:32:00.607Z,2.03
2023-04-18T08:33:00.679Z,1.901
2023-04-18T08:34:01.705Z,1.977
2023-04-18T08:35:00.652Z,2.102
2023-04-18T08:36:00.685Z,2.174
2023-04-18T08:37:00.716Z,2.207
2023-04-18T08:38:00.757Z,2.318
2023-04-18T08:39:00.787Z,2.357
2023-04-18T08:40:00.835Z,2.378
2023-04-18T08:41:00.876Z,2.281
2023-04-18T08:42:00.917Z,2.359
2023-04-18T08:43:00.947Z,2.312
2023-04-18T08:44:00.973Z,2.468
2023-04-18T08:45:01.021Z,2.451
2023-04-18T08:46:01.095Z,2.412
2023-04-18T08:47:01.094Z,2.393
2023-04-18T08:48:01.155Z,2.374
2023-04-18T08:49:01.190Z,2.443
2023-04-18T08:50:01.216Z,2.463
2023-04-18T08:51:01.250Z,2.501
2023-04-18T08:52:01.310Z,2.493
2023-04-18T08:53:01.334Z,2.512
2023-04-18T08:54:01.382Z,2.551
2023-04-18T08:55:01.418Z,2.646
2023-04-18T08:56:01.650Z,2.722
2023-04-18T08:57:01.496Z,2.534
2023-04-18T08:58:01.533Z,2.609
2023-04-18T08:59:01.577Z,2.981
2023-04-18T09:00:01.703Z,3.076
2023-04-18T09:01:01.764Z,3.188
2023-04-18T09:02:01.884Z,3.225
2023-04-18T09:03:01.805Z,3.253
2023-04-18T09:04:01.826Z,3.029
2023-04-18T09:05:01.816Z,3.104
2023-04-18T09:06:01.851Z,3.179
2023-04-18T09:07:01.899Z,3.141
2023-04-18T09:08:01.956Z,3.216
2023-04-18T09:09:02.002Z,3.197
2023-04-18T09:10:02.109Z,3.16
2023-04-18T09:11:02.088Z,3.243
2023-04-18T09:12:02.152Z,3.262
2023-04-18T09:13:02.192Z,3.28
2023-04-18T09:14:02.247Z,3.28
2023-04-18T09:15:02.276Z,3.371
2023-04-18T09:16:02.329Z,3.261
2023-04-18T09:17:02.560Z,3.261
2023-04-18T09:18:02.556Z,3.261
2023-04-18T09:19:02.440Z,3.406
2023-04-18T09:20:02.486Z,3.352
2023-04-18T09:21:02.517Z,3.315
2023-04-18T09:22:02.567Z,3.389
2023-04-18T09:23:02.608Z,3.389
2023-04-18T09:24:02.649Z,3.37
2023-04-18T09:25:02.705Z,3.407
2023-04-18T09:26:02.734Z,3.279
2023-04-18T09:27:02.785Z,3.279
2023-04-18T09:28:02.822Z,3.297
2023-04-18T09:29:02.862Z,3.425
2023-04-18T09:30:02.905Z,3.443
2023-04-18T09:31:02.975Z,3.515
2023-04-18T09:32:03.009Z,3.587
2023-04-18T09:33:04.097Z,3.679
2023-04-18T09:34:03.076Z,3.715
2023-04-18T09:35:04.605Z,3.697
2023-04-18T09:36:03.150Z,3.635
2023-04-18T09:37:03.234Z,3.599
2023-04-18T09:38:03.220Z,3.581
2023-04-18T09:39:03.261Z,3.618
2023-04-18T09:40:03.307Z,3.656
2023-04-18T09:41:03.343Z,3.621
2023-04-18T09:42:03.378Z,3.493
2023-04-18T09:43:03.405Z,3.511
2023-04-18T09:44:03.452Z,3.54
2023-04-18T09:45:03.506Z,3.456
2023-04-18T09:46:03.604Z,3.41
2023-04-18T09:47:03.605Z,3.392
2023-04-18T09:48:03.707Z,3.373
2023-04-18T09:49:03.690Z,3.373
2023-04-18T09:50:03.721Z,3.391
2023-04-18T09:51:03.744Z,3.455
2023-04-18T09:52:03.781Z,3.528
2023-04-18T09:53:03.815Z,3.565
2023-04-18T09:54:03.858Z,3.583
2023-04-18T09:55:03.892Z,3.583
2023-04-18T09:56:03.967Z,3.583
2023-04-18T09:57:03.969Z,3.702
2023-04-18T09:58:04.020Z,3.575
2023-04-18T09:59:04.054Z,3.594
2023-04-18T10:00:04.097Z,3.558
2023-04-18T10:01:04.182Z,3.559
2023-04-18T10:02:04.215Z,3.605
2023-04-18T10:03:04.265Z,3.513
2023-04-18T10:04:04.349Z,3.624
2023-04-18T10:05:04.468Z,3.457
2023-04-18T10:06:04.341Z,3.41
2023-04-18T10:07:04.373Z,3.755
2023-04-18T10:08:04.420Z,4.014
2023-04-18T10:09:04.466Z,4.024
2023-04-18T10:10:04.494Z,3.782
2023-04-18T10:11:04.533Z,3.838
2023-04-18T10:12:04.573Z,3.855
2023-04-18T10:13:04.619Z,3.655
2023-04-18T10:14:04.656Z,3.605
2023-04-18T10:15:04.693Z,3.625
2023-04-18T10:16:04.751Z,3.624
2023-04-18T10:17:04.800Z,3.545
2023-04-18T10:18:06.245Z,3.699
2023-04-18T10:19:04.878Z,3.669
2023-04-18T10:20:04.896Z,3.918
2023-04-18T10:21:04.936Z,3.762
2023-04-18T10:22:04.968Z,3.858
2023-04-18T10:23:05.011Z,3.693
2023-04-18T10:24:05.045Z,3.625
2023-04-18T10:25:05.078Z,3.625
2023-04-18T10:26:05.134Z,3.781
2023-04-18T10:27:05.160Z,3.719
2023-04-18T10:28:05.198Z,3.689
2023-04-18T10:29:05.231Z,3.689
2023-04-18T10:30:05.771Z,3.922
2023-04-18T10:31:05.367Z,3.939
2023-04-18T10:32:05.369Z,3.996
2023-04-18T10:33:08.514Z,4.043
2023-04-18T10:34:06.118Z,4.081
2023-04-18T10:35:05.483Z,4.003
2023-04-18T10:36:05.552Z,4.08
2023-04-18T10:37:05.569Z,4.192
2023-04-18T10:38:05.610Z,4.133
2023-04-18T10:39:05.653Z,3.919
2023-04-18T10:40:05.687Z,4.017
2023-04-18T10:41:05.726Z,3.84
2023-04-18T10:42:05.777Z,4.017
2023-04-18T10:43:05.804Z,4.025
2023-04-18T10:44:06.383Z,4.161
2023-04-18T10:45:05.901Z,4.159
2023-04-18T10:46:07.444Z,4.233
2023-04-18T10:47:05.988Z,4.233
2023-04-18T10:48:06.023Z,4.135
2023-04-18T10:49:06.042Z,4.036
2023-04-18T10:50:06.811Z,4.036
2023-04-18T10:51:06.134Z,4.041
2023-04-18T10:52:06.180Z,4.167
2023-04-18T10:53:06.205Z,4.128
2023-04-18T10:54:06.241Z,4.224
2023-04-18T10:55:06.292Z,4.484
2023-04-18T10:56:06.328Z,4.608
2023-04-18T10:57:06.362Z,4.51
2023-04-18T10:58:06.404Z,4.43
2023-04-18T10:59:06.452Z,4.387
2023-04-18T11:00:06.508Z,4.11
2023-04-18T11:01:06.560Z,4.112
2023-04-18T11:02:06.585Z,4.192
2023-04-18T11:03:06.775Z,4.238
2023-04-18T11:04:06.766Z,4.299
2023-04-18T11:05:06.711Z,4.18
2023-04-18T11:06:06.750Z,4.416
2023-04-18T11:07:06.821Z,4.298
2023-04-18T11:08:06.851Z,4.258
2023-04-18T11:09:06.900Z,4.345
2023-04-18T11:10:06.926Z,4.405
2023-04-18T11:11:06.977Z,4.186
2023-04-18T11:12:07.049Z,4.218
2023-04-18T11:13:07.077Z,4.272
2023-04-18T11:14:07.118Z,4.273
2023-04-18T11:15:07.156Z,4.113
2023-04-18T11:16:07.219Z,4.193
2023-04-18T11:17:07.251Z,4.373
2023-04-18T11:18:07.301Z,4.764
2023-04-18T11:19:07.327Z,4.569
2023-04-18T11:20:07.367Z,4.411
2023-04-18T11:21:07.430Z,4.329
2023-04-18T11:22:07.457Z,4.645
2023-04-18T11:23:07.505Z,4.672
2023-04-18T11:24:07.557Z,4.543
2023-04-18T11:25:07.584Z,4.435
2023-04-18T11:26:07.624Z,4.534
2023-04-18T11:27:07.661Z,4.41
2023-04-18T11:28:07.700Z,4.35
2023-04-18T11:29:07.734Z,4.267
2023-04-18T11:30:07.775Z,4.249
2023-04-18T11:31:07.827Z,4.282
2023-04-18T11:32:07.944Z,4.242
2023-04-18T11:33:07.931Z,4.262
2023-04-18T11:34:07.963Z,4.342
2023-04-18T11:35:08.004Z,4.262
2023-04-18T11:36:08.046Z,4.41
2023-04-18T11:37:08.093Z,4.771
2023-04-18T11:38:08.143Z,4.551
2023-04-18T11:39:08.177Z,4.249
2023-04-18T11:40:08.232Z,4.11
2023-04-18T11:41:08.270Z,4.153
2023-04-18T11:42:08.335Z,4.214
2023-04-18T11:43:08.350Z,4.275
2023-04-18T11:44:08.398Z,4.242
2023-04-18T11:45:08.463Z,4.462
2023-04-18T11:46:08.539Z,4.442
2023-04-18T11:47:08.536Z,4.422
2023-04-18T11:48:08.617Z,4.462
2023-04-18T11:49:08.615Z,4.462
2023-04-18T11:50:08.673Z,4.47
2023-04-18T11:51:08.722Z,4.516
2023-04-18T11:52:08.750Z,4.596
2023-04-18T11:53:08.794Z,4.415
2023-04-18T11:54:08.836Z,4.334
2023-04-18T11:55:08.883Z,4.536
2023-04-18T11:56:08.938Z,4.596
2023-04-18T11:57:08.966Z,4.576
2023-04-18T11:58:09.019Z,4.775
2023-04-18T11:59:09.060Z,4.556
2023-04-18T12:00:09.101Z,4.496
2023-04-18T12:01:09.138Z,4.394
2023-04-18T12:02:16.369Z,4.497
2023-04-18T12:03:10.667Z,4.47
2023-04-18T12:04:09.490Z,4.49
2023-04-18T12:05:09.711Z,4.57
2023-04-18T12:07:09.402Z,4.55
2023-04-18T12:08:09.457Z,4.506
2023-04-18T12:09:09.488Z,4.409
2023-04-18T12:10:09.537Z,4.493
2023-04-18T12:11:09.578Z,4.414
2023-04-18T12:12:09.623Z,4.555
2023-04-18T12:13:09.679Z,4.733
2023-04-18T12:14:09.707Z,4.633
2023-04-18T12:15:09.783Z,4.551
2023-04-18T12:16:09.982Z,4.633
2023-04-18T12:17:09.851Z,4.613
2023-04-18T12:18:09.880Z,4.573
2023-04-18T12:19:09.920Z,4.613
2023-04-18T12:20:10.005Z,4.692
2023-04-18T12:21:10.022Z,4.748
2023-04-18T12:22:10.078Z,4.806
2023-04-18T12:23:10.091Z,4.939
2023-04-18T12:24:10.148Z,4.84
2023-04-18T12:25:10.221Z,4.879
2023-04-18T12:26:10.234Z,5.016
2023-04-18T12:27:10.287Z,4.957
2023-04-18T12:28:10.334Z,4.76
2023-04-18T12:29:10.371Z,4.681
2023-04-18T12:30:10.408Z,4.721
2023-04-18T12:31:10.518Z,4.702
2023-04-18T12:32:10.504Z,4.821
2023-04-18T12:33:10.554Z,4.762
2023-04-18T12:34:10.608Z,4.9
2023-04-18T12:35:10.629Z,4.899
2023-04-18T12:36:10.683Z,4.939
2023-04-18T12:37:10.744Z,4.899
2023-04-18T12:38:10.765Z,4.779
2023-04-18T12:39:10.800Z,4.974
2023-04-18T12:40:10.837Z,4.836
2023-04-18T12:41:10.894Z,4.836
2023-04-18T12:42:10.964Z,4.875
2023-04-18T12:43:10.984Z,4.868
2023-04-18T12:44:11.169Z,4.828
2023-04-18T12:45:11.085Z,4.788
2023-04-18T12:46:11.165Z,4.869
2023-04-18T12:47:11.396Z,5.007
2023-04-18T12:48:11.190Z,4.987
2023-04-18T12:49:11.231Z,4.968
2023-04-18T12:50:11.649Z,4.928
2023-04-18T12:51:11.317Z,5.066
2023-04-18T12:52:11.402Z,5.124
2023-04-18T12:53:11.400Z,5.104
2023-04-18T12:54:11.622Z,5.006
2023-04-18T12:55:11.485Z,5.084
2023-04-18T12:56:11.532Z,5.006
2023-04-18T12:57:11.583Z,5.084
2023-04-18T12:58:11.653Z,5.092
2023-04-18T12:59:11.796Z,5.131
2023-04-18T13:00:11.713Z,5.17